Home   Weather   USA   Crestline   Past weeks
Flag for USA

Past Weather in Crestline, California, USA — Yesterday and Last 2 Weeks

Currently: 67 °F. Clear. (Weather station: Norton Air Force Base / San Bern, USA). See more current weather

Past Weather in Crestline — Graph

°F

Crestline Temperature Yesterday

Maximum temperature yesterday: 99 °F (at 2:50 pm)
Minimum temperature yesterday: 59 °F (at 5:40 am)
Average temperature yesterday: 75 °F

High & Low Weather Summary for the Past Weeks

 TemperatureHumidityPressure
High99 °F (Jun 1, 2:59 pm)82% (May 31, 5:40 am)30.11 "Hg (May 31, 5:40 am)
Low53 °F (Jun 10, 5:40 am)10% (Jun 12, 2:50 pm)29.81 "Hg (Jun 3, 4:52 pm)
Average69 °F53%29.94 "Hg
* Reported May 29 1:00 am — Jun 13 1:20 am, Crestline. Weather by CustomWeather, © 2021

Note: Actual official high and low records may vary slightly from our data, if they occured in-between our weather recording intervals... More about our weather records

Crestline Weather History for the Previous 24 Hours

Scroll right to see more
 ConditionsComfort  
Time TempWeatherWind HumidityBarometerVisibility
1:20 am
Sun, Jun 13
69 °FClear.No wind41%29.88 "Hg10 mi
1:00 am71 °FClear.No wind36%29.88 "Hg10 mi
12:20 am72 °FClear.No wind36%29.89 "Hg10 mi
11:40 pm
Sat, Jun 12
72 °FClear.No wind35%29.90 "Hg10 mi
11:20 pm73 °FClear.3 mph35%29.90 "Hg10 mi
11:00 pm74 °FClear.3 mph34%29.90 "Hg10 mi
10:40 pm75 °FClear.5 mph31%29.90 "Hg10 mi
10:20 pm75 °FClear.5 mph30%29.90 "Hg10 mi
10:00 pm76 °FClear.6 mph28%29.89 "Hg10 mi
9:40 pm77 °FClear.7 mph28%29.88 "Hg10 mi
8:51 pm79 °FClear.10 mph28%29.87 "Hg10 mi
7:52 pm82 °FPassing clouds.10 mph23%29.85 "Hg10 mi
6:53 pm88 °FPassing clouds.15 mph18%29.83 "Hg10 mi
5:51 pm93 °FPassing clouds.14 mph16%29.81 "Hg10 mi
5:01 pm97 °FSunny.15 mph13%29.81 "Hg10 mi
3:53 pm97 °FPassing clouds.6 mph12%29.81 "Hg10 mi
2:50 pm99 °FSunny.8 mph10%29.82 "Hg10 mi
1:55 pm95 °FSunny.9 mph11%29.83 "Hg10 mi
12:51 pm93 °FSunny.3 mph12%29.85 "Hg10 mi
11:52 am88 °FSunny.No wind16%29.87 "Hg10 mi
10:52 am84 °FSunny.No wind18%29.88 "Hg10 mi
9:52 am81 °FSunny.No wind23%29.88 "Hg10 mi
8:55 am75 °FSunny.No wind27%29.89 "Hg10 mi
7:52 am68 °FSunny.No wind38%29.89 "Hg10 mi
6:52 am63 °FSunny.No wind49%29.89 "Hg10 mi
5:40 am59 °FSunny.No wind52%29.88 "Hg10 mi
5:00 am61 °FClear.No wind50%29.88 "Hg10 mi
4:40 am61 °FClear.No wind50%29.88 "Hg10 mi
4:00 am62 °FClear.No wind50%29.88 "Hg10 mi
3:40 am62 °FClear.No wind50%29.88 "Hg10 mi
3:20 am63 °FClear.No wind49%29.89 "Hg10 mi
3:00 am63 °FClear.No wind53%29.89 "Hg10 mi
2:40 am64 °FClear.No wind48%29.89 "Hg10 mi
2:20 am64 °FClear.No wind44%29.90 "Hg10 mi
2:00 am64 °FClear.No wind50%29.90 "Hg10 mi
Weather by CustomWeather, © 2021

See weather overview